createdAt,value
2022-07-27T00:04:07.512Z,3.03
2022-07-27T00:09:09.739Z,2.67
2022-07-27T00:14:11.701Z,3.07
2022-07-27T00:19:13.600Z,2.60
2022-07-27T00:24:15.614Z,2.40
2022-07-27T00:29:17.383Z,2.60
2022-07-27T00:34:19.133Z,2.13
2022-07-27T00:39:20.835Z,2.45
2022-07-27T00:44:29.741Z,1.90
2022-07-27T00:49:31.635Z,1.90
2022-07-27T00:54:33.640Z,2.22
2022-07-27T00:59:35.922Z,1.80
2022-07-27T01:04:37.933Z,1.70
2022-07-27T01:09:39.874Z,1.80
2022-07-27T01:14:41.616Z,2.03
2022-07-27T01:19:44.005Z,1.60
2022-07-27T01:24:45.718Z,1.60
2022-07-27T01:29:47.917Z,2.07
2022-07-27T01:34:49.651Z,1.80
2022-07-27T01:39:51.419Z,2.22
2022-07-27T01:44:53.206Z,1.67
2022-07-27T01:49:54.929Z,2.23
2022-07-27T01:54:56.685Z,2.15
2022-07-27T01:59:58.396Z,1.70
2022-07-27T02:05:00.232Z,1.77
2022-07-27T02:10:01.975Z,1.40
2022-07-27T02:15:08.599Z,1.85
2022-07-27T02:20:19.928Z,1.70
2022-07-27T02:25:21.643Z,1.30
2022-07-27T02:30:23.405Z,1.10
2022-07-27T02:35:25.164Z,1.20
2022-07-27T02:40:26.962Z,1.40
2022-07-27T02:45:28.737Z,1.50
2022-07-27T02:50:30.491Z,1.53
2022-07-27T02:55:32.224Z,1.40
2022-07-27T03:00:33.990Z,1.40
2022-07-27T03:05:35.715Z,1.70
2022-07-27T03:10:37.450Z,1.52
2022-07-27T03:15:39.390Z,1.65
2022-07-27T03:20:41.232Z,1.27
2022-07-27T03:25:43.712Z,1.35
2022-07-27T03:30:45.455Z,1.60
2022-07-27T03:35:47.208Z,1.40
2022-07-27T03:40:49.494Z,1.40
2022-07-27T03:45:51.385Z,1.50
2022-07-27T03:50:53.847Z,1.60
2022-07-27T03:55:55.821Z,1.92
2022-07-27T04:00:57.615Z,2.25
2022-07-27T04:05:59.382Z,2.20
2022-07-27T04:11:01.131Z,2.10
2022-07-27T04:16:03.843Z,2.30
2022-07-27T04:21:05.582Z,2.30
2022-07-27T04:26:07.485Z,2.17
2022-07-27T04:31:09.903Z,1.90
2022-07-27T04:36:11.643Z,2.40
2022-07-27T04:41:13.376Z,1.88
2022-07-27T04:46:15.577Z,2.22
2022-07-27T04:51:18.206Z,1.75
2022-07-27T04:56:19.908Z,2.15
2022-07-27T05:01:21.713Z,2.43
2022-07-27T05:06:23.713Z,1.90
2022-07-27T05:11:25.456Z,2.33
2022-07-27T05:16:29.008Z,2.38
2022-07-27T05:21:31.037Z,2.30
2022-07-27T05:26:32.756Z,2.15
2022-07-27T05:31:34.573Z,1.90
2022-07-27T05:36:36.422Z,2.53
2022-07-27T05:41:38.140Z,2.25
2022-07-27T05:46:40.110Z,3.15
2022-07-27T05:51:41.851Z,4.93
2022-07-27T05:56:43.625Z,4.00
2022-07-27T06:01:45.593Z,2.80
2022-07-27T06:06:47.324Z,2.53
2022-07-27T06:11:49.117Z,2.77
2022-07-27T06:16:50.867Z,3.78
2022-07-27T06:21:53.915Z,6.25
2022-07-27T06:26:56.316Z,2.13
2022-07-27T06:31:58.077Z,2.40
2022-07-27T06:37:01.475Z,2.63
2022-07-27T06:42:03.235Z,1.85
2022-07-27T06:47:05.051Z,1.98
2022-07-27T06:52:06.905Z,1.27
2022-07-27T06:57:08.697Z,1.92
2022-07-27T07:02:10.458Z,1.70
2022-07-27T07:07:12.181Z,1.53
2022-07-27T07:12:13.931Z,1.40
2022-07-27T07:17:15.658Z,1.80
2022-07-27T07:22:18.299Z,1.50
2022-07-27T07:27:20.037Z,1.65
2022-07-27T07:32:21.802Z,0.90
2022-07-27T07:37:23.542Z,1.40
2022-07-27T07:42:45.849Z,1.02
2022-07-27T07:47:48.113Z,1.75
2022-07-27T07:52:52.281Z,1.02
2022-07-27T07:57:54.699Z,0.98
2022-07-27T08:02:57.185Z,1.00
2022-07-27T08:07:59.060Z,1.35
2022-07-27T08:13:00.787Z,0.90
2022-07-27T08:18:06.489Z,1.30
2022-07-27T08:23:08.226Z,0.90
2022-07-27T08:28:10.187Z,1.07
2022-07-27T08:33:11.938Z,1.48
2022-07-27T08:38:13.893Z,0.88
2022-07-27T08:43:23.390Z,0.77
2022-07-27T08:48:28.593Z,1.10
2022-07-27T08:53:53.186Z,1.00
2022-07-27T08:58:55.464Z,0.95
2022-07-27T09:03:57.192Z,1.60
2022-07-27T09:08:59.661Z,1.30
2022-07-27T09:14:02.734Z,1.25
2022-07-27T09:19:09.549Z,1.73
2022-07-27T09:24:36.701Z,1.55
2022-07-27T09:29:36.563Z,1.65
2022-07-27T09:34:38.374Z,1.95
2022-07-27T09:39:40.156Z,1.70
2022-07-27T09:44:44.892Z,1.70
2022-07-27T09:49:47.563Z,1.60
2022-07-27T09:54:49.464Z,1.70
2022-07-27T10:00:11.658Z,1.20
2022-07-27T10:05:13.800Z,1.20
2022-07-27T10:10:16.341Z,1.70
2022-07-27T10:15:18.132Z,1.80
2022-07-27T10:20:19.869Z,1.67
2022-07-27T10:25:23.151Z,1.60
2022-07-27T10:30:28.001Z,1.40
2022-07-27T10:35:34.596Z,1.63
2022-07-27T10:40:36.378Z,1.85
2022-07-27T10:45:55.388Z,1.50
2022-07-27T10:51:02.185Z,1.90
2022-07-27T10:56:05.204Z,2.20
2022-07-27T11:01:07.021Z,2.17
2022-07-27T11:06:32.006Z,2.10
2022-07-27T11:11:33.114Z,2.17
2022-07-27T11:16:54.080Z,2.20
2022-07-27T11:21:57.987Z,2.63
2022-07-27T11:26:59.794Z,2.67
2022-07-27T11:32:02.106Z,1.80
2022-07-27T11:37:12.120Z,1.70
2022-07-27T11:42:21.151Z,1.45
2022-07-27T11:47:25.006Z,1.60
2022-07-27T11:52:26.712Z,1.67
2022-07-27T11:57:33.137Z,1.23
2022-07-27T12:02:34.977Z,1.63
2022-07-27T12:07:36.919Z,1.67
2022-07-27T12:12:38.645Z,1.45
2022-07-27T12:17:41.397Z,1.50
2022-07-27T12:22:48.181Z,1.80
2022-07-27T12:28:13.557Z,1.35
2022-07-27T12:33:34.559Z,1.52
2022-07-27T12:38:46.331Z,1.33
2022-07-27T12:44:13.877Z,1.85
2022-07-27T12:49:16.616Z,1.63
2022-07-27T12:54:18.690Z,1.50
2022-07-27T12:59:22.225Z,1.80
2022-07-27T13:04:23.975Z,2.07
2022-07-27T13:09:25.703Z,1.80
2022-07-27T13:14:47.703Z,1.90
2022-07-27T13:19:49.459Z,2.00
2022-07-27T13:24:51.236Z,1.60
2022-07-27T13:29:52.949Z,1.60
2022-07-27T13:34:54.945Z,1.60
2022-07-27T13:39:56.663Z,1.70
2022-07-27T13:45:07.841Z,1.80
2022-07-27T13:50:18.249Z,1.60
2022-07-27T13:55:26.208Z,1.90
2022-07-27T14:00:29.844Z,1.97
2022-07-27T14:05:31.641Z,1.45
2022-07-27T14:10:35.571Z,1.65
2022-07-27T14:15:53.469Z,1.50
2022-07-27T14:21:02.609Z,1.50
2022-07-27T14:26:06.746Z,1.45
2022-07-27T14:31:10.960Z,1.20
2022-07-27T14:36:12.911Z,1.07
2022-07-27T14:41:14.637Z,1.35
2022-07-27T14:46:16.391Z,1.50
2022-07-27T14:51:18.156Z,1.10
2022-07-27T14:56:20.118Z,1.30
2022-07-27T15:01:21.914Z,1.00
2022-07-27T15:06:24.006Z,1.00
2022-07-27T15:11:25.809Z,1.17
2022-07-27T15:16:27.533Z,1.15
2022-07-27T15:21:29.277Z,1.43
2022-07-27T15:26:31.014Z,1.02
2022-07-27T15:31:32.807Z,1.35
2022-07-27T15:36:37.686Z,1.13
2022-07-27T15:41:44.531Z,1.20
2022-07-27T15:46:47.341Z,1.48
2022-07-27T15:51:49.161Z,1.27
2022-07-27T15:56:51.271Z,1.30
2022-07-27T16:01:53.660Z,1.05
2022-07-27T16:06:55.485Z,1.20
2022-07-27T16:11:57.262Z,1.23
2022-07-27T16:17:01.844Z,1.30
2022-07-27T16:22:04.045Z,1.00
2022-07-27T16:27:07.457Z,1.50
2022-07-27T16:32:09.177Z,0.95
2022-07-27T16:37:10.958Z,0.97
2022-07-27T16:42:12.669Z,1.80
2022-07-27T16:47:14.411Z,1.40
2022-07-27T16:52:16.141Z,1.52
2022-07-27T16:57:17.859Z,1.10
2022-07-27T17:02:19.607Z,1.27
2022-07-27T17:07:22.050Z,1.27
2022-07-27T17:12:24.400Z,2.17
2022-07-27T17:17:26.151Z,1.60
2022-07-27T17:22:27.895Z,1.73
2022-07-27T17:27:29.636Z,1.20
2022-07-27T17:32:31.525Z,1.35
2022-07-27T17:37:56.029Z,1.50
2022-07-27T17:42:55.152Z,1.35
2022-07-27T17:47:57.162Z,1.63
2022-07-27T17:52:58.889Z,1.45
2022-07-27T17:58:01.037Z,1.63
2022-07-27T18:03:03.101Z,1.57
2022-07-27T18:08:05.582Z,1.73
2022-07-27T18:13:07.801Z,1.77
2022-07-27T18:18:10.257Z,1.30
2022-07-27T18:23:13.195Z,1.63
2022-07-27T18:28:15.278Z,1.60
2022-07-27T18:33:17.856Z,1.80
2022-07-27T18:38:19.879Z,1.83
2022-07-27T18:43:21.700Z,1.80
2022-07-27T18:48:23.439Z,1.50
2022-07-27T18:53:25.150Z,1.63
2022-07-27T18:58:26.902Z,1.70
2022-07-27T19:03:28.931Z,1.70
2022-07-27T19:08:30.699Z,2.27
2022-07-27T19:13:32.466Z,2.00
2022-07-27T19:18:34.279Z,1.77
2022-07-27T19:23:36.012Z,1.50
2022-07-27T19:28:37.833Z,1.67
2022-07-27T19:33:39.813Z,2.10
2022-07-27T19:38:41.550Z,2.15
2022-07-27T19:43:43.316Z,2.35
2022-07-27T19:48:45.129Z,2.58
2022-07-27T19:53:47.102Z,2.60
2022-07-27T19:58:48.824Z,2.65
2022-07-27T20:03:54.363Z,3.03
2022-07-27T20:08:56.948Z,2.40
2022-07-27T20:13:59.754Z,2.30
2022-07-27T20:19:01.454Z,3.33
2022-07-27T20:24:03.377Z,2.55
2022-07-27T20:29:05.526Z,3.15
2022-07-27T20:34:07.237Z,2.80
2022-07-27T20:39:11.733Z,3.37
2022-07-27T20:44:17.125Z,4.37
2022-07-27T20:49:19.202Z,3.83
2022-07-27T20:54:28.944Z,4.13
2022-07-27T20:59:31.408Z,4.10
2022-07-27T21:04:35.318Z,5.03
2022-07-27T21:09:37.201Z,5.07
2022-07-27T21:14:42.990Z,5.00
2022-07-27T21:19:44.951Z,5.28
2022-07-27T21:24:46.880Z,5.00
2022-07-27T21:29:51.495Z,5.05
2022-07-27T21:34:53.485Z,4.60
2022-07-27T21:39:55.206Z,4.90
2022-07-27T21:44:57.259Z,4.28
2022-07-27T21:49:59.369Z,4.60
2022-07-27T21:55:01.304Z,4.93
2022-07-27T22:00:05.707Z,4.78
2022-07-27T22:05:08.321Z,4.78
2022-07-27T22:10:10.455Z,4.63
2022-07-27T22:15:12.497Z,5.00
2022-07-27T22:20:14.333Z,4.20
2022-07-27T22:25:16.711Z,4.20
2022-07-27T22:30:18.763Z,3.30
2022-07-27T22:35:20.748Z,3.13
2022-07-27T22:40:22.502Z,3.60
2022-07-27T22:45:24.280Z,3.60
2022-07-27T22:50:26.150Z,4.05
2022-07-27T22:55:28.021Z,3.60
2022-07-27T23:00:29.932Z,3.20
2022-07-27T23:05:32.023Z,2.50
2022-07-27T23:10:33.855Z,2.40
2022-07-27T23:15:37.234Z,2.10
2022-07-27T23:20:39.053Z,2.38
2022-07-27T23:25:40.825Z,2.90
2022-07-27T23:30:42.580Z,1.90
2022-07-27T23:35:44.643Z,2.05
2022-07-27T23:40:46.441Z,1.25
2022-07-27T23:45:49.620Z,1.10
2022-07-27T23:50:51.407Z,1.00
2022-07-27T23:55:53.184Z,0.87
